createdAt,value
2018-07-21T00:01:01.472Z,68.20
2018-07-21T00:03:29.602Z,71.50
2018-07-21T00:05:57.744Z,72.00
2018-07-21T00:08:25.893Z,70.00
2018-07-21T00:10:54.099Z,71.10
2018-07-21T00:13:22.247Z,66.80
2018-07-21T00:15:50.524Z,67.00
2018-07-21T00:18:19.352Z,66.30
2018-07-21T00:20:47.495Z,65.00
2018-07-21T00:23:15.644Z,69.00
2018-07-21T00:25:43.794Z,68.40
2018-07-21T00:28:12.006Z,69.40
2018-07-21T00:30:40.127Z,68.90
2018-07-21T00:33:08.332Z,68.60
2018-07-21T00:35:36.708Z,65.70
2018-07-21T00:38:04.847Z,63.50
2018-07-21T00:40:33.050Z,63.80
2018-07-21T00:43:01.199Z,64.30
2018-07-21T00:45:29.380Z,61.70
2018-07-21T00:47:57.527Z,61.10
2018-07-21T00:50:25.716Z,61.60
2018-07-21T00:52:53.895Z,62.50
2018-07-21T00:55:22.067Z,61.70
2018-07-21T00:57:50.261Z,60.90
2018-07-21T01:00:19.368Z,61.70
2018-07-21T01:02:47.605Z,62.10
2018-07-21T01:05:15.699Z,63.10
2018-07-21T01:07:43.791Z,63.40
2018-07-21T01:10:11.947Z,65.40
2018-07-21T01:12:40.109Z,63.30
2018-07-21T01:15:08.894Z,63.80
2018-07-21T01:17:37.051Z,63.80
2018-07-21T01:20:05.339Z,63.90
2018-07-21T01:22:33.608Z,64.00
2018-07-21T01:25:01.730Z,65.40
2018-07-21T01:27:30.188Z,64.40
2018-07-21T01:29:58.404Z,64.70
2018-07-21T01:32:26.551Z,64.80
2018-07-21T01:34:54.769Z,63.60
2018-07-21T01:37:22.887Z,64.00
2018-07-21T01:39:50.990Z,64.60
2018-07-21T01:42:19.539Z,66.30
2018-07-21T01:44:47.651Z,66.20
2018-07-21T01:47:15.887Z,65.30
2018-07-21T01:49:44.026Z,67.00
2018-07-21T01:52:12.124Z,67.40
2018-07-21T01:54:40.247Z,67.10
2018-07-21T01:57:08.360Z,66.70
2018-07-21T01:59:37.000Z,67.50
2018-07-21T02:02:05.153Z,68.00
2018-07-21T02:04:33.286Z,67.90
2018-07-21T02:07:01.446Z,68.20
2018-07-21T02:09:29.608Z,68.70
2018-07-21T02:11:57.763Z,66.90
2018-07-21T02:14:25.902Z,65.70
2018-07-21T02:16:54.107Z,65.60
2018-07-21T02:21:50.179Z,66.70
2018-07-21T02:24:18.360Z,66.90
2018-07-21T02:26:46.862Z,68.10
2018-07-21T02:29:15.671Z,69.30
2018-07-21T02:31:43.909Z,68.60
2018-07-21T02:34:12.080Z,67.60
2018-07-21T02:36:40.236Z,67.90
2018-07-21T02:39:10.115Z,67.70
2018-07-21T02:41:38.257Z,67.90
2018-07-21T02:44:06.408Z,69.70
2018-07-21T02:46:34.613Z,69.70
2018-07-21T02:49:02.856Z,68.50
2018-07-21T02:53:58.996Z,68.70
2018-07-21T02:56:27.146Z,69.00
2018-07-21T02:58:55.323Z,70.00
2018-07-21T03:01:23.684Z,71.20
2018-07-21T03:03:51.801Z,73.00
2018-07-21T03:06:20.090Z,73.30
2018-07-21T03:08:48.288Z,73.90
2018-07-21T03:11:16.475Z,74.80
2018-07-21T03:13:44.621Z,75.00
2018-07-21T03:16:12.736Z,75.20
2018-07-21T03:18:40.843Z,75.90
2018-07-21T03:21:08.968Z,76.00
2018-07-21T03:23:37.112Z,76.20
2018-07-21T03:26:05.353Z,76.50
2018-07-21T03:28:33.463Z,77.80
2018-07-21T03:31:01.755Z,78.10
2018-07-21T03:33:29.710Z,78.70
2018-07-21T03:35:57.894Z,78.00
2018-07-21T03:38:25.987Z,78.10
2018-07-21T03:40:54.152Z,77.70
2018-07-21T03:43:22.338Z,77.20
2018-07-21T03:45:50.483Z,76.70
2018-07-21T03:48:18.583Z,76.40
2018-07-21T03:50:47.598Z,77.30
2018-07-21T03:53:15.747Z,77.10
2018-07-21T03:55:43.889Z,77.40
2018-07-21T03:58:11.994Z,77.60
2018-07-21T04:00:40.185Z,78.30
2018-07-21T04:03:08.251Z,79.50
2018-07-21T04:05:36.419Z,80.30
2018-07-21T04:08:04.547Z,80.50
2018-07-21T04:10:32.698Z,80.70
2018-07-21T04:13:00.876Z,80.80
2018-07-21T04:15:29.008Z,79.10
2018-07-21T04:17:57.154Z,78.60
2018-07-21T04:20:25.276Z,77.80
2018-07-21T04:22:53.401Z,77.20
2018-07-21T04:25:21.535Z,76.90
2018-07-21T04:27:49.639Z,77.50
2018-07-21T04:30:17.739Z,78.50
2018-07-21T04:32:45.836Z,79.90
2018-07-21T04:35:13.966Z,80.40
2018-07-21T04:37:42.115Z,79.60
2018-07-21T04:40:10.270Z,79.30
2018-07-21T04:42:38.393Z,79.10
2018-07-21T04:45:06.527Z,79.10
2018-07-21T04:47:34.688Z,79.90
2018-07-21T04:50:02.829Z,79.60
2018-07-21T04:52:30.940Z,79.40
2018-07-21T04:54:59.089Z,78.90
2018-07-21T04:57:27.224Z,78.70
2018-07-21T04:59:56.022Z,78.50
2018-07-21T05:02:24.240Z,78.40
2018-07-21T05:04:52.379Z,79.30
2018-07-21T05:07:20.522Z,79.70
2018-07-21T05:09:49.243Z,79.90
2018-07-21T05:12:17.541Z,79.30
2018-07-21T05:14:45.639Z,79.20
2018-07-21T05:17:13.768Z,80.00
2018-07-21T05:19:41.909Z,79.90
2018-07-21T05:22:10.095Z,80.30
2018-07-21T05:24:38.222Z,80.20
2018-07-21T05:27:06.367Z,80.00
2018-07-21T05:29:34.481Z,79.00
2018-07-21T05:32:02.696Z,79.80
2018-07-21T05:34:30.818Z,79.20
2018-07-21T05:36:58.950Z,79.10
2018-07-21T05:39:27.074Z,78.70
2018-07-21T05:41:55.196Z,79.10
2018-07-21T05:44:23.394Z,80.20
2018-07-21T05:46:51.528Z,79.90
2018-07-21T05:49:20.156Z,79.50
2018-07-21T05:51:48.307Z,78.00
2018-07-21T05:54:16.580Z,77.60
2018-07-21T05:56:44.767Z,79.30
2018-07-21T05:59:13.655Z,79.10
2018-07-21T06:01:41.838Z,78.10
2018-07-21T06:04:09.954Z,77.80
2018-07-21T06:06:38.081Z,77.40
2018-07-21T06:09:07.716Z,77.80
2018-07-21T06:11:35.831Z,79.60
2018-07-21T06:14:04.008Z,79.10
2018-07-21T06:16:32.173Z,77.90
2018-07-21T06:19:00.377Z,77.50
2018-07-21T06:21:28.514Z,78.50
2018-07-21T06:23:56.695Z,78.40
2018-07-21T06:26:24.858Z,78.30
2018-07-21T06:28:52.988Z,77.40
2018-07-21T06:31:21.111Z,77.20
2018-07-21T06:36:17.108Z,75.30
2018-07-21T06:38:45.255Z,74.70
2018-07-21T06:41:13.400Z,75.20
2018-07-21T06:43:41.543Z,74.30
2018-07-21T06:46:09.660Z,74.00
2018-07-21T06:51:07.066Z,72.10
2018-07-21T06:53:35.179Z,71.20
2018-07-21T06:56:03.407Z,70.10
2018-07-21T06:58:32.167Z,69.70
2018-07-21T07:01:00.401Z,70.00
2018-07-21T07:03:28.568Z,71.60
2018-07-21T07:05:56.699Z,72.10
2018-07-21T07:08:24.820Z,72.60
2018-07-21T07:10:52.978Z,71.50
2018-07-21T07:13:21.126Z,71.90
2018-07-21T07:15:49.275Z,72.80
2018-07-21T07:18:17.398Z,74.10
2018-07-21T07:20:46.262Z,72.00
2018-07-21T07:23:14.384Z,73.90
2018-07-21T07:25:42.502Z,73.80
2018-07-21T07:28:10.603Z,72.50
2018-07-21T07:30:38.876Z,70.10
2018-07-21T07:33:07.021Z,67.80
2018-07-21T07:35:35.139Z,65.80
2018-07-21T07:38:03.296Z,64.60
2018-07-21T07:40:31.487Z,67.00
2018-07-21T07:42:59.696Z,66.30
2018-07-21T07:45:28.523Z,64.10
2018-07-21T07:47:56.634Z,63.60
2018-07-21T07:50:24.795Z,63.20
2018-07-21T07:52:52.950Z,62.20
2018-07-21T07:55:21.068Z,61.60
2018-07-21T07:57:49.243Z,63.70
2018-07-21T08:00:17.442Z,64.30
2018-07-21T08:02:45.576Z,62.50
2018-07-21T08:05:13.685Z,62.70
2018-07-21T08:07:41.828Z,62.60
2018-07-21T08:10:09.984Z,61.20
2018-07-21T08:12:38.248Z,62.30
2018-07-21T08:15:06.404Z,63.20
2018-07-21T08:17:34.549Z,61.60
2018-07-21T08:20:02.747Z,62.40
2018-07-21T08:22:30.915Z,61.90
2018-07-21T08:24:59.067Z,62.60
2018-07-21T08:27:27.207Z,60.40
2018-07-21T08:29:55.479Z,62.70
2018-07-21T08:32:23.611Z,62.10
2018-07-21T08:37:20.267Z,60.10
2018-07-21T08:39:48.443Z,59.60
2018-07-21T08:42:16.628Z,57.90
2018-07-21T08:44:44.787Z,55.20
2018-07-21T08:47:12.926Z,53.30
2018-07-21T08:49:41.177Z,51.30
2018-07-21T08:52:09.314Z,50.40
2018-07-21T08:54:37.471Z,50.30
2018-07-21T08:57:05.644Z,48.30
2018-07-21T08:59:33.786Z,49.00
2018-07-21T09:02:02.106Z,48.10
2018-07-21T09:04:30.274Z,50.10
2018-07-21T09:06:58.456Z,51.20
2018-07-21T09:09:26.599Z,50.40
2018-07-21T09:11:54.810Z,50.30
2018-07-21T09:14:23.967Z,51.10
2018-07-21T09:16:52.097Z,51.00
2018-07-21T09:19:20.556Z,50.90
2018-07-21T09:21:48.783Z,49.40
2018-07-21T09:24:17.188Z,47.30
2018-07-21T09:26:45.324Z,46.00
2018-07-21T09:29:13.471Z,46.20
2018-07-21T09:31:41.631Z,46.60
2018-07-21T09:34:09.795Z,44.70
2018-07-21T09:36:37.908Z,45.30
2018-07-21T09:39:07.459Z,44.80
2018-07-21T09:41:35.612Z,46.10
2018-07-21T09:44:03.797Z,45.30
2018-07-21T09:46:31.931Z,44.70
2018-07-21T09:49:00.188Z,44.70
2018-07-21T09:51:28.415Z,44.80
2018-07-21T09:53:56.604Z,44.80
2018-07-21T09:56:24.751Z,44.00
2018-07-21T09:58:52.884Z,43.20
2018-07-21T10:01:21.055Z,42.00
2018-07-21T10:03:49.172Z,41.40
2018-07-21T10:06:17.268Z,42.40
2018-07-21T10:08:45.380Z,43.50
2018-07-21T10:11:13.487Z,43.60
2018-07-21T10:13:41.636Z,42.30
2018-07-21T10:16:09.813Z,43.10
2018-07-21T10:18:37.991Z,42.70
2018-07-21T10:21:06.099Z,41.80
2018-07-21T10:23:34.223Z,41.50
2018-07-21T10:26:07.852Z,39.50
2018-07-21T10:28:41.437Z,40.20
2018-07-21T10:31:09.810Z,40.20
2018-07-21T10:33:37.995Z,39.90
2018-07-21T10:36:06.484Z,38.10
2018-07-21T10:38:35.524Z,37.90
2018-07-21T10:41:03.686Z,36.90
2018-07-21T10:43:31.844Z,36.90
2018-07-21T10:46:00.004Z,34.40
2018-07-21T10:48:28.167Z,33.20
2018-07-21T10:50:56.298Z,31.10
2018-07-21T10:53:24.592Z,31.20
2018-07-21T10:55:52.779Z,29.70
2018-07-21T10:58:20.979Z,30.80
2018-07-21T11:00:49.122Z,28.70
2018-07-21T11:03:17.271Z,27.50
2018-07-21T11:05:45.380Z,27.10
2018-07-21T11:08:14.092Z,27.40
2018-07-21T11:13:10.083Z,26.20
2018-07-21T11:15:38.253Z,27.50
2018-07-21T11:18:06.380Z,27.40
2018-07-21T11:20:34.539Z,27.90
2018-07-21T11:23:02.748Z,27.50
2018-07-21T11:25:30.847Z,25.90
2018-07-21T11:27:58.981Z,24.70
2018-07-21T11:30:27.179Z,24.60
2018-07-21T11:32:55.312Z,23.90
2018-07-21T11:35:23.549Z,24.50
2018-07-21T11:37:51.601Z,25.60
2018-07-21T11:42:48.553Z,25.20
2018-07-21T11:45:16.764Z,26.60
2018-07-21T11:47:44.925Z,25.00
2018-07-21T11:50:13.063Z,25.50
2018-07-21T11:52:41.190Z,24.90
2018-07-21T11:55:09.367Z,26.00
2018-07-21T11:57:37.956Z,26.40
2018-07-21T12:00:06.691Z,26.70
2018-07-21T12:02:34.873Z,26.00
2018-07-21T12:05:03.020Z,25.20
2018-07-21T12:07:31.240Z,26.30
2018-07-21T12:09:59.380Z,26.70
2018-07-21T12:12:27.530Z,26.30
2018-07-21T12:14:55.667Z,26.30
2018-07-21T12:17:23.813Z,27.30
2018-07-21T12:19:51.948Z,27.60
2018-07-21T12:22:21.059Z,29.20
2018-07-21T12:24:49.191Z,30.80
2018-07-21T12:27:17.339Z,30.00
2018-07-21T12:29:45.630Z,30.50
2018-07-21T12:32:13.793Z,30.50
2018-07-21T12:34:42.041Z,29.90
2018-07-21T12:37:10.191Z,31.90
2018-07-21T12:39:38.351Z,30.40
2018-07-21T12:42:06.541Z,30.90
2018-07-21T12:44:34.812Z,28.70
2018-07-21T12:47:02.988Z,30.00
2018-07-21T12:49:31.193Z,28.70
2018-07-21T12:51:59.341Z,27.60
2018-07-21T12:54:27.573Z,28.40
2018-07-21T12:56:55.796Z,26.30
2018-07-21T12:59:23.934Z,26.50
2018-07-21T13:01:52.105Z,27.10
2018-07-21T13:04:21.242Z,27.30
2018-07-21T13:06:49.395Z,26.40
2018-07-21T13:09:17.581Z,25.40
2018-07-21T13:11:45.725Z,24.60
2018-07-21T13:14:13.868Z,25.40
2018-07-21T13:21:37.907Z,25.30
2018-07-21T13:24:06.031Z,25.90
2018-07-21T13:26:34.196Z,27.30
2018-07-21T13:29:02.469Z,28.70
2018-07-21T13:31:30.718Z,28.60
2018-07-21T13:33:58.810Z,30.50
2018-07-21T13:36:27.980Z,30.00
2018-07-21T13:38:56.137Z,29.60
2018-07-21T13:41:24.399Z,31.40
2018-07-21T13:43:52.571Z,31.20
2018-07-21T13:46:21.053Z,30.40
2018-07-21T13:48:49.231Z,30.50
2018-07-21T13:51:17.448Z,30.90
2018-07-21T13:53:45.604Z,30.50
2018-07-21T13:56:13.740Z,31.60
2018-07-21T13:58:41.881Z,31.80
2018-07-21T14:01:10.260Z,31.60
2018-07-21T14:03:38.484Z,31.50
2018-07-21T14:06:06.639Z,31.40
2018-07-21T14:08:34.808Z,32.10
2018-07-21T14:11:03.054Z,32.10
2018-07-21T14:13:31.210Z,32.40
2018-07-21T14:15:59.417Z,32.00
2018-07-21T14:18:27.499Z,32.30
2018-07-21T14:20:55.690Z,32.30
2018-07-21T14:23:23.846Z,32.30
2018-07-21T14:25:52.010Z,33.80
2018-07-21T14:28:21.344Z,35.90
2018-07-21T14:30:49.515Z,34.10
2018-07-21T14:33:17.679Z,34.20
2018-07-21T14:35:45.858Z,35.50
2018-07-21T14:38:14.059Z,35.50
2018-07-21T14:40:42.356Z,35.40
2018-07-21T14:43:10.514Z,34.80
2018-07-21T14:45:38.672Z,36.10
2018-07-21T14:48:06.816Z,37.40
2018-07-21T14:50:35.079Z,37.00
2018-07-21T14:53:03.277Z,38.90
2018-07-21T14:55:31.436Z,37.60
2018-07-21T14:57:59.615Z,37.60
2018-07-21T15:00:27.969Z,38.90
2018-07-21T15:02:56.707Z,38.70
2018-07-21T15:05:24.943Z,38.10
2018-07-21T15:07:53.120Z,41.80
2018-07-21T15:10:21.308Z,44.00
2018-07-21T15:12:49.482Z,44.20
2018-07-21T15:15:17.635Z,49.50
2018-07-21T15:17:45.943Z,51.10
2018-07-21T15:20:15.027Z,53.40
2018-07-21T15:22:43.236Z,54.70
2018-07-21T15:25:11.384Z,56.10
2018-07-21T15:27:39.551Z,56.30
2018-07-21T15:30:07.721Z,56.40
2018-07-21T15:32:35.954Z,56.20
2018-07-21T15:35:04.163Z,57.90
2018-07-21T15:37:32.330Z,59.50
2018-07-21T15:40:00.492Z,60.40
2018-07-21T15:42:28.977Z,61.20
2018-07-21T15:44:57.116Z,64.50
2018-07-21T15:47:25.326Z,70.80
2018-07-21T15:49:53.532Z,69.40
2018-07-21T15:52:21.681Z,71.50
2018-07-21T15:54:49.868Z,69.40
2018-07-21T15:57:18.025Z,66.90
2018-07-21T15:59:46.185Z,65.40
2018-07-21T16:02:14.355Z,67.60
2018-07-21T16:07:10.350Z,65.40
2018-07-21T16:09:38.490Z,66.90
2018-07-21T16:12:06.594Z,71.60
2018-07-21T16:14:34.731Z,76.20
2018-07-21T16:17:02.885Z,79.60
2018-07-21T16:19:31.053Z,79.40
2018-07-21T16:24:27.141Z,81.20
2018-07-21T16:26:55.292Z,83.00
2018-07-21T16:29:23.500Z,84.60
2018-07-21T16:31:51.712Z,85.80
2018-07-21T16:36:48.766Z,85.70
2018-07-21T16:39:16.915Z,87.70
2018-07-21T16:41:45.114Z,88.20
2018-07-21T16:44:13.284Z,88.50
2018-07-21T16:46:41.390Z,89.80
2018-07-21T16:49:09.536Z,90.50
2018-07-21T16:51:37.665Z,89.90
2018-07-21T16:54:05.824Z,90.50
2018-07-21T16:56:33.960Z,90.70
2018-07-21T16:59:02.120Z,90.70
2018-07-21T17:01:30.296Z,90.60
2018-07-21T17:03:58.439Z,90.50
2018-07-21T17:06:26.604Z,90.90
2018-07-21T17:08:54.787Z,90.40
2018-07-21T17:11:22.909Z,90.90
2018-07-21T17:16:19.007Z,90.00
2018-07-21T17:18:47.179Z,91.00
2018-07-21T17:21:15.359Z,88.80
2018-07-21T17:23:43.537Z,91.80
2018-07-21T17:26:12.150Z,91.10
2018-07-21T17:28:40.296Z,90.30
2018-07-21T17:31:08.475Z,91.40
2018-07-21T17:33:36.615Z,91.50
2018-07-21T17:36:04.843Z,90.80
2018-07-21T17:38:33.014Z,91.50
2018-07-21T17:41:01.171Z,88.00
2018-07-21T17:43:29.315Z,90.40
2018-07-21T17:45:57.502Z,90.00
2018-07-21T17:48:25.741Z,90.10
2018-07-21T17:53:21.790Z,85.50
2018-07-21T17:55:49.928Z,89.00
2018-07-21T17:58:18.084Z,85.30
2018-07-21T18:00:46.244Z,85.50
2018-07-21T18:03:14.369Z,87.90
2018-07-21T18:05:42.617Z,88.80
2018-07-21T18:08:10.772Z,87.40
2018-07-21T18:10:38.922Z,87.80
2018-07-21T18:13:07.080Z,89.50
2018-07-21T18:15:35.219Z,90.00
2018-07-21T18:18:03.335Z,89.10
2018-07-21T18:20:31.462Z,89.10
2018-07-21T18:22:59.556Z,89.10
2018-07-21T18:25:27.768Z,88.90
2018-07-21T18:27:55.874Z,88.80
2018-07-21T18:30:24.007Z,88.70
2018-07-21T18:32:52.139Z,89.10
2018-07-21T18:35:20.428Z,88.00
2018-07-21T18:37:48.527Z,89.80
2018-07-21T18:40:17.625Z,88.60
2018-07-21T18:42:45.823Z,89.10
2018-07-21T18:45:13.949Z,90.40
2018-07-21T18:47:42.059Z,90.40
2018-07-21T18:50:10.203Z,89.60
2018-07-21T18:52:38.324Z,90.00
2018-07-21T18:55:06.964Z,90.10
2018-07-21T18:57:35.085Z,90.10
2018-07-21T19:00:03.201Z,90.40
2018-07-21T19:04:59.300Z,90.60
2018-07-21T19:07:27.512Z,90.60
2018-07-21T19:09:55.673Z,90.50
2018-07-21T19:12:29.462Z,91.40
2018-07-21T19:14:57.604Z,91.60
2018-07-21T19:17:26.451Z,91.60
2018-07-21T19:20:00.080Z,91.50
2018-07-21T19:22:28.355Z,91.40
2018-07-21T19:24:56.495Z,91.70
2018-07-21T19:27:30.844Z,91.60
2018-07-21T19:29:59.007Z,91.80
2018-07-21T19:32:32.551Z,92.50
2018-07-21T19:35:00.704Z,92.10
2018-07-21T19:37:34.495Z,92.20
2018-07-21T19:40:02.927Z,92.30
2018-07-21T19:42:31.028Z,92.20
2018-07-21T19:44:59.199Z,92.00
2018-07-21T19:47:27.440Z,92.00
2018-07-21T19:49:55.491Z,91.80
2018-07-21T19:52:23.640Z,92.10
2018-07-21T19:54:51.795Z,92.20
2018-07-21T19:57:19.951Z,92.30
2018-07-21T19:59:48.133Z,92.00
2018-07-21T20:02:16.276Z,92.30
2018-07-21T20:04:44.403Z,92.70
2018-07-21T20:07:12.516Z,93.00
2018-07-21T20:09:40.689Z,93.00
2018-07-21T20:12:08.996Z,93.00
2018-07-21T20:14:37.152Z,92.70
2018-07-21T20:17:05.296Z,92.90
2018-07-21T20:19:33.451Z,93.00
2018-07-21T20:22:01.595Z,92.80
2018-07-21T20:24:29.724Z,93.10
2018-07-21T20:26:57.873Z,92.80
2018-07-21T20:29:26.053Z,93.00
2018-07-21T20:31:54.183Z,93.30
2018-07-21T20:34:22.517Z,93.50
2018-07-21T20:36:50.671Z,93.20
2018-07-21T20:39:18.820Z,93.30
2018-07-21T20:41:46.987Z,93.30
2018-07-21T20:44:15.124Z,92.90
2018-07-21T20:46:43.839Z,93.50
2018-07-21T20:49:11.974Z,93.50
2018-07-21T20:51:40.125Z,93.60
2018-07-21T20:54:08.246Z,93.30
2018-07-21T20:56:36.419Z,93.40
2018-07-21T20:59:04.539Z,93.40
2018-07-21T21:01:32.692Z,93.40
2018-07-21T21:04:00.824Z,93.30
2018-07-21T21:06:28.958Z,93.30
2018-07-21T21:08:57.061Z,93.30
2018-07-21T21:11:25.200Z,93.30
2018-07-21T21:13:53.322Z,93.50
2018-07-21T21:16:22.025Z,93.50
2018-07-21T21:18:50.166Z,93.50
2018-07-21T21:21:18.320Z,93.40
2018-07-21T21:23:46.447Z,94.50
2018-07-21T21:26:14.577Z,94.60
2018-07-21T21:28:42.679Z,94.60
2018-07-21T21:33:38.749Z,94.00
2018-07-21T21:36:06.884Z,94.00
2018-07-21T21:38:35.002Z,93.90
2018-07-21T21:41:03.273Z,93.90
2018-07-21T21:43:31.445Z,93.70
2018-07-21T21:48:27.530Z,93.90
2018-07-21T21:50:55.587Z,93.90
2018-07-21T21:53:23.697Z,93.90
2018-07-21T21:55:51.827Z,93.70
2018-07-21T21:58:19.947Z,93.80
2018-07-21T22:01:09.924Z,93.80
2018-07-21T22:03:38.028Z,93.90
2018-07-21T22:06:06.176Z,94.20
2018-07-21T22:08:35.442Z,94.10
2018-07-21T22:11:04.042Z,94.00
2018-07-21T22:13:32.178Z,94.00
2018-07-21T22:16:00.564Z,93.90
2018-07-21T22:18:29.836Z,93.80
2018-07-21T22:20:57.963Z,93.90
2018-07-21T22:23:26.108Z,93.80
2018-07-21T22:25:55.121Z,94.00
2018-07-21T22:28:23.307Z,93.80
2018-07-21T22:30:51.429Z,93.30
2018-07-21T22:33:19.568Z,93.30
2018-07-21T22:35:48.741Z,93.90
2018-07-21T22:38:16.907Z,93.50
2018-07-21T22:40:45.004Z,93.60
2018-07-21T22:43:13.148Z,93.60
2018-07-21T22:45:41.276Z,93.50
2018-07-21T22:48:09.435Z,93.20
2018-07-21T22:50:37.527Z,93.10
2018-07-21T22:53:05.687Z,92.10
2018-07-21T22:55:33.824Z,91.90
2018-07-21T22:58:01.965Z,92.20
2018-07-21T23:00:30.097Z,92.10
2018-07-21T23:02:58.304Z,92.10
2018-07-21T23:05:26.426Z,92.00
2018-07-21T23:07:54.579Z,92.30
2018-07-21T23:10:22.738Z,91.60
2018-07-21T23:12:50.945Z,91.60
2018-07-21T23:15:19.036Z,91.90
2018-07-21T23:17:47.208Z,91.70
2018-07-21T23:20:15.403Z,91.80
2018-07-21T23:22:43.573Z,91.50
2018-07-21T23:25:11.832Z,91.40
2018-07-21T23:27:40.042Z,91.10
2018-07-21T23:30:08.263Z,91.40
2018-07-21T23:32:36.471Z,91.60
2018-07-21T23:35:04.639Z,91.10
2018-07-21T23:37:32.783Z,90.70
2018-07-21T23:40:00.952Z,90.80
2018-07-21T23:42:29.114Z,90.70
2018-07-21T23:44:57.342Z,90.80
2018-07-21T23:47:25.503Z,91.00
2018-07-21T23:49:53.796Z,91.40
2018-07-21T23:52:22.401Z,91.00
2018-07-21T23:54:51.450Z,91.50
2018-07-21T23:57:19.582Z,91.20
2018-07-21T23:59:47.726Z,91.40
